Terminal Aerodrome Forecast
Issued by NWS

Home | Current Version | Previous Version | Text Only | Print | Product List | Glossary On
Versions: 1 2 3 4 5 6 7 8 9 10 11 12 13 14 15
000
FTAK31 PAJN 262300
TAFASI
TAF
PASI 262330Z 2700/2724 30009KT P6SM VCSH SCT015 OVC060
      TEMPO 2700/2703 -RA BKN015
     FM270300 29007KT P6SM VCSH BKN010 OVC050
     FM270900 30010KT P6SM VCSH BKN015 OVC040
     FM271800 29008KT P6SM BKN020 BKN080
     FM272200 29014KT P6SM BKN030 BKN100=

USA.gov is the U.S. government's official web portal to all federal, state and local government web resources and services.